createdAt,value
2019-03-31T00:02:19.728Z,22.35
2019-03-31T00:04:51.943Z,27.05
2019-03-31T00:07:24.028Z,18.67
2019-03-31T00:09:56.161Z,20.12
2019-03-31T00:12:28.352Z,21.02
2019-03-31T00:15:00.566Z,24.75
2019-03-31T00:17:44.852Z,25.65
2019-03-31T00:20:16.981Z,25.02
2019-03-31T00:22:49.113Z,24.45
2019-03-31T00:25:21.212Z,23.52
2019-03-31T00:27:53.443Z,23.85
2019-03-31T00:30:26.135Z,19.67
2019-03-31T00:32:58.260Z,24.30
2019-03-31T00:35:31.336Z,23.40
2019-03-31T00:38:03.534Z,28.62
2019-03-31T00:40:35.629Z,21.50
2019-03-31T00:43:07.780Z,23.15
2019-03-31T00:45:40.156Z,23.65
2019-03-31T00:48:12.300Z,65.20
2019-03-31T00:50:44.402Z,35.35
2019-03-31T00:53:16.558Z,38.78
2019-03-31T00:55:49.116Z,27.48
2019-03-31T00:58:21.251Z,25.97
2019-03-31T01:01:14.690Z,34.92
2019-03-31T01:03:48.829Z,27.45
2019-03-31T01:06:23.043Z,24.37
2019-03-31T01:08:55.462Z,21.87
2019-03-31T01:11:28.827Z,28.55
2019-03-31T01:14:02.252Z,25.12
2019-03-31T01:16:35.314Z,22.62
2019-03-31T01:19:07.580Z,21.45
2019-03-31T01:21:39.816Z,25.90
2019-03-31T01:24:13.110Z,25.52
2019-03-31T01:26:45.376Z,25.10
2019-03-31T01:29:17.917Z,26.12
2019-03-31T01:31:51.011Z,27.45
2019-03-31T01:34:23.324Z,27.15
2019-03-31T01:36:55.555Z,23.22
2019-03-31T01:39:30.227Z,23.45
2019-03-31T01:42:04.256Z,22.73
2019-03-31T01:44:36.547Z,31.70
2019-03-31T01:47:09.762Z,24.32
2019-03-31T01:49:41.865Z,24.95
2019-03-31T01:52:14.112Z,31.90
2019-03-31T01:54:46.566Z,29.63
2019-03-31T01:57:18.769Z,27.90
2019-03-31T01:59:50.988Z,26.30
2019-03-31T02:02:28.408Z,25.30
2019-03-31T02:05:00.832Z,27.20
2019-03-31T02:07:33.442Z,22.37
2019-03-31T02:10:07.371Z,24.05
2019-03-31T02:12:39.501Z,23.80
2019-03-31T02:15:11.956Z,27.52
2019-03-31T02:17:44.056Z,28.87
2019-03-31T02:20:16.303Z,28.60
2019-03-31T02:22:48.435Z,28.92
2019-03-31T02:25:20.578Z,24.25
2019-03-31T02:27:52.877Z,26.40
2019-03-31T02:30:25.031Z,25.23
2019-03-31T02:32:57.131Z,26.25
2019-03-31T02:35:29.374Z,24.35
2019-03-31T02:38:03.452Z,37.23
2019-03-31T02:40:35.854Z,25.25
2019-03-31T02:43:07.962Z,26.55
2019-03-31T02:45:40.070Z,30.32
2019-03-31T02:48:12.227Z,23.42
2019-03-31T02:50:53.671Z,26.77
2019-03-31T02:53:25.946Z,34.03
2019-03-31T02:55:59.073Z,26.55
2019-03-31T02:58:32.459Z,25.08
2019-03-31T03:01:04.958Z,24.18
2019-03-31T03:03:40.322Z,32.95
2019-03-31T03:06:15.374Z,24.70
2019-03-31T03:08:50.040Z,23.15
2019-03-31T03:11:23.980Z,26.17
2019-03-31T03:13:57.106Z,25.00
2019-03-31T03:16:29.682Z,26.62
2019-03-31T03:19:01.960Z,23.05
2019-03-31T03:21:34.111Z,26.33
2019-03-31T03:24:06.290Z,23.95
2019-03-31T03:26:38.426Z,24.77
2019-03-31T03:29:10.566Z,27.65
2019-03-31T03:31:42.692Z,22.67
2019-03-31T03:34:14.801Z,22.55
2019-03-31T03:36:46.926Z,26.33
2019-03-31T03:39:19.579Z,27.30
2019-03-31T03:41:51.714Z,26.23
2019-03-31T03:44:23.804Z,27.67
2019-03-31T03:46:55.956Z,27.77
2019-03-31T03:49:28.082Z,21.68
2019-03-31T03:52:00.375Z,24.05
2019-03-31T03:54:33.474Z,23.80
2019-03-31T03:57:05.771Z,25.10
2019-03-31T03:59:37.871Z,25.27
2019-03-31T04:02:10.003Z,20.72
2019-03-31T04:04:42.302Z,24.70
2019-03-31T04:07:14.406Z,21.17
2019-03-31T04:09:46.556Z,20.20
2019-03-31T04:12:18.652Z,20.27
2019-03-31T04:14:50.789Z,22.27
2019-03-31T04:17:24.083Z,22.42
2019-03-31T04:19:56.212Z,21.70
2019-03-31T04:22:28.317Z,29.55
2019-03-31T04:25:00.733Z,23.02
2019-03-31T04:27:33.091Z,23.42
2019-03-31T04:30:06.833Z,23.98
2019-03-31T04:32:39.212Z,23.20
2019-03-31T04:35:11.386Z,27.13
2019-03-31T04:37:44.471Z,22.48
2019-03-31T04:40:16.574Z,21.45
2019-03-31T04:42:48.788Z,20.75
2019-03-31T04:45:20.891Z,24.23
2019-03-31T04:47:53.514Z,26.95
2019-03-31T04:50:25.612Z,24.23
2019-03-31T04:52:57.699Z,22.30
2019-03-31T04:55:29.809Z,23.83
2019-03-31T04:58:01.903Z,22.50
2019-03-31T05:00:34.548Z,24.02
2019-03-31T05:03:06.766Z,22.77
2019-03-31T05:05:39.315Z,22.37
2019-03-31T05:08:11.584Z,24.43
2019-03-31T05:10:43.660Z,21.48
2019-03-31T05:13:15.776Z,32.05
2019-03-31T05:15:48.071Z,26.35
2019-03-31T05:18:20.157Z,22.58
2019-03-31T05:20:52.352Z,19.90
2019-03-31T05:23:24.450Z,21.75
2019-03-31T05:25:57.054Z,24.77
2019-03-31T05:28:29.150Z,22.85
2019-03-31T05:31:01.946Z,18.57
2019-03-31T05:33:34.056Z,24.15
2019-03-31T05:36:06.140Z,23.62
2019-03-31T05:38:38.333Z,18.57
2019-03-31T05:41:10.419Z,22.90
2019-03-31T05:43:42.516Z,22.22
2019-03-31T05:46:15.634Z,25.52
2019-03-31T05:48:48.994Z,18.75
2019-03-31T05:51:21.310Z,18.98
2019-03-31T05:53:53.423Z,21.52
2019-03-31T05:56:25.723Z,26.10
2019-03-31T05:58:58.180Z,20.23
2019-03-31T06:01:32.157Z,25.35
2019-03-31T06:04:04.392Z,21.55
2019-03-31T06:06:37.218Z,25.72
2019-03-31T06:09:09.555Z,21.57
2019-03-31T06:11:41.653Z,25.77
2019-03-31T06:14:13.743Z,24.47
2019-03-31T06:16:45.861Z,16.77
2019-03-31T06:19:17.951Z,24.18
2019-03-31T06:21:50.145Z,19.92
2019-03-31T06:24:22.275Z,19.25
2019-03-31T06:26:54.393Z,19.37
2019-03-31T06:29:26.494Z,27.95
2019-03-31T06:31:58.614Z,23.77
2019-03-31T06:34:31.710Z,21.25
2019-03-31T06:37:03.788Z,19.65
2019-03-31T06:39:35.913Z,21.82
2019-03-31T06:42:08.084Z,17.15
2019-03-31T06:44:40.179Z,24.80
2019-03-31T06:47:12.290Z,23.60
2019-03-31T06:49:44.474Z,19.98
2019-03-31T06:52:16.567Z,19.35
2019-03-31T06:54:48.656Z,19.12
2019-03-31T06:57:20.867Z,22.05
2019-03-31T06:59:53.024Z,19.98
2019-03-31T07:02:25.128Z,19.85
2019-03-31T07:05:01.280Z,22.95
2019-03-31T07:07:31.382Z,18.65
2019-03-31T07:10:03.596Z,21.00
2019-03-31T07:12:35.699Z,18.30
2019-03-31T07:15:09.079Z,25.35
2019-03-31T07:17:41.193Z,25.12
2019-03-31T07:20:13.823Z,21.33
2019-03-31T07:22:46.026Z,22.65
2019-03-31T07:25:18.534Z,19.60
2019-03-31T07:27:50.602Z,25.72
2019-03-31T07:30:22.915Z,24.90
2019-03-31T07:32:55.084Z,18.70
2019-03-31T07:35:27.205Z,18.60
2019-03-31T07:37:59.424Z,27.48
2019-03-31T07:40:32.218Z,18.90
2019-03-31T07:43:04.419Z,16.95
2019-03-31T07:45:36.781Z,22.00
2019-03-31T07:48:09.304Z,19.87
2019-03-31T07:50:41.559Z,24.87
2019-03-31T07:53:13.660Z,21.82
2019-03-31T07:55:45.763Z,24.87
2019-03-31T07:58:17.851Z,24.25
2019-03-31T08:00:50.072Z,26.82
2019-03-31T08:03:22.170Z,19.80
2019-03-31T08:05:54.265Z,22.90
2019-03-31T08:08:26.390Z,26.23
2019-03-31T08:10:58.618Z,21.77
2019-03-31T08:13:31.204Z,17.05
2019-03-31T08:16:04.702Z,18.45
2019-03-31T08:18:36.830Z,20.88
2019-03-31T08:21:09.339Z,18.27
2019-03-31T08:23:41.469Z,18.15
2019-03-31T08:26:13.571Z,15.78
2019-03-31T08:28:45.637Z,17.17
2019-03-31T08:31:17.730Z,18.85
2019-03-31T08:33:49.849Z,18.02
2019-03-31T08:36:21.973Z,20.68
2019-03-31T08:38:54.486Z,18.35
2019-03-31T08:41:26.565Z,14.87
2019-03-31T08:43:58.676Z,18.90
2019-03-31T08:46:30.782Z,17.32
2019-03-31T08:49:02.881Z,16.50
2019-03-31T08:51:34.994Z,14.78
2019-03-31T08:54:07.193Z,13.65
2019-03-31T08:56:39.286Z,16.12
2019-03-31T08:59:11.834Z,14.03
2019-03-31T09:01:44.932Z,12.93
2019-03-31T09:04:17.120Z,14.83
2019-03-31T09:06:49.206Z,14.73
2019-03-31T09:09:21.327Z,14.87
2019-03-31T09:11:53.397Z,15.55
2019-03-31T09:14:26.803Z,16.02
2019-03-31T09:16:58.892Z,16.60
2019-03-31T09:19:31.568Z,17.90
2019-03-31T09:22:03.664Z,17.65
2019-03-31T09:24:35.834Z,16.70
2019-03-31T09:27:07.964Z,22.42
2019-03-31T09:29:40.061Z,11.68
2019-03-31T09:32:12.305Z,15.53
2019-03-31T09:34:44.387Z,15.90
2019-03-31T09:37:16.474Z,18.17
2019-03-31T09:39:48.583Z,10.82
2019-03-31T09:42:20.679Z,7.92
2019-03-31T09:44:52.772Z,9.50
2019-03-31T09:47:24.877Z,10.32
2019-03-31T09:49:56.950Z,8.68
2019-03-31T09:52:29.067Z,10.88
2019-03-31T09:55:01.153Z,22.42
2019-03-31T09:57:33.277Z,10.70
2019-03-31T10:00:09.606Z,12.53
2019-03-31T10:02:41.948Z,10.85
2019-03-31T10:05:16.053Z,8.10
2019-03-31T10:07:48.546Z,8.33
2019-03-31T10:10:39.099Z,8.55
2019-03-31T10:13:11.306Z,8.38
2019-03-31T10:15:43.444Z,11.08
2019-03-31T10:18:18.190Z,8.63
2019-03-31T10:20:49.391Z,12.70
2019-03-31T10:23:21.474Z,12.58
2019-03-31T10:25:53.780Z,10.23
2019-03-31T10:28:25.872Z,10.00
2019-03-31T10:30:57.938Z,11.35
2019-03-31T10:33:30.033Z,11.30
2019-03-31T10:36:02.120Z,9.20
2019-03-31T10:38:34.216Z,7.30
2019-03-31T10:41:06.447Z,8.33
2019-03-31T10:43:38.536Z,8.98
2019-03-31T10:46:10.623Z,8.28
2019-03-31T10:48:42.732Z,6.85
2019-03-31T10:51:14.809Z,7.92
2019-03-31T10:53:46.924Z,5.22
2019-03-31T10:56:19.032Z,7.37
2019-03-31T10:58:51.312Z,7.75
2019-03-31T11:01:23.391Z,5.80
2019-03-31T11:03:55.520Z,7.90
2019-03-31T11:06:27.624Z,7.15
2019-03-31T11:08:59.783Z,9.43
2019-03-31T11:11:34.469Z,6.50
2019-03-31T11:14:07.187Z,9.28
2019-03-31T11:16:39.320Z,10.05
2019-03-31T11:19:11.402Z,6.22
2019-03-31T11:22:00.478Z,6.92
2019-03-31T11:24:33.739Z,5.83
2019-03-31T11:27:05.952Z,6.03
2019-03-31T11:29:38.031Z,6.03
2019-03-31T11:32:10.112Z,9.50
2019-03-31T11:34:42.219Z,9.45
2019-03-31T11:37:14.317Z,10.08
2019-03-31T11:39:46.409Z,4.37
2019-03-31T11:42:18.507Z,5.85
2019-03-31T11:44:50.638Z,5.12
2019-03-31T11:47:22.735Z,7.28
2019-03-31T11:49:54.830Z,5.87
2019-03-31T11:52:26.939Z,5.85
2019-03-31T11:54:59.030Z,5.58
2019-03-31T11:57:31.641Z,5.58
2019-03-31T12:00:05.087Z,3.50
2019-03-31T12:02:37.192Z,4.35
2019-03-31T12:05:09.830Z,5.12
2019-03-31T12:07:47.184Z,6.47
2019-03-31T12:10:19.681Z,5.25
2019-03-31T12:12:50.194Z,13.65
2019-03-31T12:15:22.295Z,5.65
2019-03-31T12:17:54.448Z,5.83
2019-03-31T12:20:26.552Z,4.80
2019-03-31T12:22:58.701Z,4.12
2019-03-31T12:25:32.240Z,5.03
2019-03-31T12:28:04.463Z,4.33
2019-03-31T12:30:36.986Z,6.03
2019-03-31T12:33:09.128Z,5.62
2019-03-31T12:35:41.307Z,3.77
2019-03-31T12:38:13.434Z,5.72
2019-03-31T12:40:45.811Z,3.52
2019-03-31T12:43:17.944Z,3.77
2019-03-31T12:45:50.019Z,3.72
2019-03-31T12:48:22.162Z,7.05
2019-03-31T12:50:54.293Z,5.50
2019-03-31T12:53:26.911Z,3.83
2019-03-31T12:56:00.291Z,5.83
2019-03-31T12:58:33.435Z,6.58
2019-03-31T13:01:07.039Z,11.10
2019-03-31T13:03:39.183Z,7.97
2019-03-31T13:06:11.396Z,6.75
2019-03-31T13:08:43.912Z,6.47
2019-03-31T13:11:16.126Z,8.48
2019-03-31T13:13:48.323Z,5.47
2019-03-31T13:16:20.810Z,6.15
2019-03-31T13:18:53.030Z,3.80
2019-03-31T13:21:25.581Z,6.90
2019-03-31T13:23:57.700Z,6.75
2019-03-31T13:26:29.831Z,6.67
2019-03-31T13:29:02.031Z,4.60
2019-03-31T13:31:34.186Z,4.33
2019-03-31T13:34:06.363Z,8.70
2019-03-31T13:36:38.498Z,6.37
2019-03-31T13:39:10.616Z,6.08
2019-03-31T13:41:42.745Z,6.90
2019-03-31T13:44:14.897Z,6.95
2019-03-31T13:46:47.497Z,5.00
2019-03-31T13:49:19.633Z,6.78
2019-03-31T13:51:51.788Z,4.80
2019-03-31T13:54:23.881Z,10.23
2019-03-31T13:56:56.632Z,6.92
2019-03-31T13:59:29.761Z,32.17
2019-03-31T14:02:02.866Z,12.35
2019-03-31T14:04:37.126Z,9.03
2019-03-31T14:07:09.095Z,11.90
2019-03-31T14:09:41.196Z,13.45
2019-03-31T14:12:13.526Z,12.23
2019-03-31T14:14:46.735Z,13.15
2019-03-31T14:17:18.828Z,9.88
2019-03-31T14:19:51.338Z,12.03
2019-03-31T14:22:23.504Z,13.85
2019-03-31T14:24:56.792Z,10.65
2019-03-31T14:27:28.933Z,12.05
2019-03-31T14:30:02.943Z,8.68
2019-03-31T14:32:35.042Z,11.73
2019-03-31T14:35:07.492Z,12.82
2019-03-31T14:37:39.694Z,14.53
2019-03-31T14:40:12.039Z,10.93
2019-03-31T14:42:44.823Z,14.58
2019-03-31T14:45:38.817Z,9.40
2019-03-31T14:48:10.954Z,14.38
2019-03-31T14:50:43.050Z,7.78
2019-03-31T14:53:15.194Z,12.30
2019-03-31T14:55:47.327Z,10.50
2019-03-31T14:58:19.507Z,11.55
2019-03-31T15:00:51.608Z,11.03
2019-03-31T15:03:23.735Z,13.18
2019-03-31T15:05:55.920Z,11.40
2019-03-31T15:08:28.088Z,11.38
2019-03-31T15:11:00.232Z,11.68
2019-03-31T15:13:32.884Z,11.15
2019-03-31T15:16:05.054Z,10.00
2019-03-31T15:18:38.461Z,9.35
2019-03-31T15:21:10.617Z,23.18
2019-03-31T15:23:42.723Z,11.12
2019-03-31T15:26:14.849Z,11.80
2019-03-31T15:28:47.601Z,13.08
2019-03-31T15:31:19.682Z,8.95
2019-03-31T15:33:51.860Z,10.80
2019-03-31T15:36:24.094Z,19.52
2019-03-31T15:39:08.279Z,9.38
2019-03-31T15:41:31.375Z,8.45
2019-03-31T15:44:03.547Z,11.40
2019-03-31T15:46:35.668Z,11.90
2019-03-31T15:49:07.803Z,8.35
2019-03-31T15:51:39.915Z,10.70
2019-03-31T15:54:12.075Z,10.95
2019-03-31T15:56:45.454Z,13.62
2019-03-31T15:59:17.886Z,11.35
2019-03-31T16:01:50.672Z,10.48
2019-03-31T16:04:22.849Z,5.90
2019-03-31T16:06:54.951Z,4.22
2019-03-31T16:09:26.534Z,5.58
2019-03-31T16:11:58.233Z,7.60
2019-03-31T16:14:30.679Z,5.58
2019-03-31T16:17:03.306Z,5.67
2019-03-31T16:19:34.910Z,4.28
2019-03-31T16:22:06.507Z,4.12
2019-03-31T16:24:41.951Z,3.58
2019-03-31T16:27:13.536Z,6.60
2019-03-31T16:29:45.114Z,7.20
2019-03-31T16:32:16.914Z,5.53
2019-03-31T16:34:48.662Z,7.87
2019-03-31T16:37:20.245Z,5.47
2019-03-31T16:39:52.174Z,5.60
2019-03-31T16:42:23.751Z,2.62
2019-03-31T16:44:58.385Z,3.58
2019-03-31T16:47:28.613Z,2.30
2019-03-31T16:50:00.340Z,6.75
2019-03-31T16:52:33.913Z,5.85
2019-03-31T16:55:06.281Z,4.08
2019-03-31T16:57:37.905Z,3.90
2019-03-31T17:00:09.752Z,5.35
2019-03-31T17:02:41.505Z,5.45
2019-03-31T17:05:21.733Z,5.28
2019-03-31T17:07:47.600Z,5.22
2019-03-31T17:10:19.260Z,3.62
2019-03-31T17:12:50.882Z,4.10
2019-03-31T17:15:22.863Z,4.90
2019-03-31T17:17:54.486Z,3.72
2019-03-31T17:20:27.169Z,7.35
2019-03-31T17:22:58.788Z,4.78
2019-03-31T17:25:30.389Z,4.55
2019-03-31T17:28:02.055Z,5.87
2019-03-31T17:30:33.785Z,2.52
2019-03-31T17:33:05.706Z,5.12
2019-03-31T17:35:37.431Z,3.55
2019-03-31T17:38:08.991Z,3.17
2019-03-31T17:40:40.645Z,4.65
2019-03-31T17:43:12.270Z,5.40
2019-03-31T17:45:43.878Z,8.95
2019-03-31T17:48:15.522Z,6.50
2019-03-31T17:50:47.276Z,4.55
2019-03-31T17:53:18.911Z,3.77
2019-03-31T17:55:50.493Z,4.92
2019-03-31T17:58:22.205Z,5.50
2019-03-31T18:00:53.885Z,7.55
2019-03-31T18:03:26.026Z,6.28
2019-03-31T18:05:57.646Z,7.25
2019-03-31T18:08:29.263Z,11.83
2019-03-31T18:11:00.889Z,6.60
2019-03-31T18:13:32.519Z,23.22
2019-03-31T18:16:04.339Z,10.70
2019-03-31T18:18:36.056Z,7.17
2019-03-31T18:21:07.663Z,5.62
2019-03-31T18:23:40.239Z,5.65
2019-03-31T18:26:11.847Z,8.55
2019-03-31T18:28:43.865Z,6.33
2019-03-31T18:31:15.704Z,6.90
2019-03-31T18:33:47.306Z,8.60
2019-03-31T18:36:19.394Z,9.55
2019-03-31T18:38:51.415Z,8.23
2019-03-31T18:41:23.047Z,8.75
2019-03-31T18:43:54.922Z,13.50
2019-03-31T18:46:26.594Z,15.98
2019-03-31T18:48:58.527Z,14.18
2019-03-31T18:51:30.402Z,10.38
2019-03-31T18:54:30.029Z,10.32
2019-03-31T18:57:10.824Z,41.10
2019-03-31T19:00:01.100Z,15.70
2019-03-31T19:03:02.138Z,18.82
2019-03-31T19:05:42.782Z,16.87
2019-03-31T19:08:45.308Z,10.32
2019-03-31T19:11:38.674Z,12.05
2019-03-31T19:14:47.460Z,13.98
2019-03-31T19:17:29.631Z,11.22
2019-03-31T19:20:19.379Z,10.25
2019-03-31T19:23:08.854Z,11.70
2019-03-31T19:26:02.323Z,9.95
2019-03-31T19:28:58.949Z,11.00
2019-03-31T19:31:59.624Z,16.15
2019-03-31T19:34:44.600Z,15.98
2019-03-31T19:37:33.889Z,13.22
2019-03-31T19:40:30.704Z,14.25
2019-03-31T19:43:40.100Z,14.00
2019-03-31T19:46:29.524Z,12.93
2019-03-31T19:49:22.757Z,11.57
2019-03-31T19:52:21.522Z,13.18
2019-03-31T19:55:12.430Z,8.98
2019-03-31T19:57:59.461Z,10.23
2019-03-31T20:00:55.890Z,10.70
2019-03-31T20:03:55.614Z,10.95
2019-03-31T20:06:49.137Z,13.55
2019-03-31T20:09:37.922Z,15.30
2019-03-31T20:12:27.179Z,9.60
2019-03-31T20:15:32.862Z,9.25
2019-03-31T20:18:26.312Z,7.92
2019-03-31T20:21:10.074Z,8.08
2019-03-31T20:23:57.066Z,7.03
2019-03-31T20:26:50.902Z,11.95
2019-03-31T20:29:41.326Z,14.25
2019-03-31T20:32:30.349Z,11.63
2019-03-31T20:35:26.751Z,15.63
2019-03-31T20:38:09.350Z,18.98
2019-03-31T20:41:06.402Z,15.80
2019-03-31T20:43:48.798Z,16.25
2019-03-31T20:46:20.439Z,15.70
2019-03-31T20:48:52.914Z,15.30
2019-03-31T20:51:24.544Z,15.58
2019-03-31T20:53:56.151Z,19.80
2019-03-31T20:56:27.718Z,18.17
2019-03-31T20:58:59.416Z,19.92
2019-03-31T21:01:32.366Z,25.10
2019-03-31T21:04:04.071Z,22.10
2019-03-31T21:06:37.159Z,20.68
2019-03-31T21:09:10.054Z,18.85
2019-03-31T21:11:41.638Z,17.95
2019-03-31T21:14:13.232Z,15.18
2019-03-31T21:16:44.822Z,19.20
2019-03-31T21:19:19.002Z,17.30
2019-03-31T21:21:49.729Z,15.43
2019-03-31T21:24:21.735Z,12.05
2019-03-31T21:26:53.315Z,15.13
2019-03-31T21:29:24.974Z,12.58
2019-03-31T21:31:56.557Z,14.47
2019-03-31T21:34:28.179Z,12.50
2019-03-31T21:37:00.376Z,16.60
2019-03-31T21:39:33.806Z,11.15
2019-03-31T21:42:05.503Z,13.80
2019-03-31T21:44:37.206Z,16.77
2019-03-31T21:47:08.816Z,14.33
2019-03-31T21:49:41.362Z,15.88
2019-03-31T21:52:12.940Z,14.55
2019-03-31T21:54:44.548Z,17.77
2019-03-31T21:57:16.663Z,17.42
2019-03-31T21:59:48.241Z,13.35
2019-03-31T22:02:19.791Z,16.97
2019-03-31T22:04:52.655Z,16.73
2019-03-31T22:07:24.225Z,16.00
2019-03-31T22:09:55.812Z,14.10
2019-03-31T22:12:27.447Z,12.07
2019-03-31T22:14:59.402Z,14.58
2019-03-31T22:17:31.588Z,17.35
2019-03-31T22:20:03.282Z,13.50
2019-03-31T22:22:34.837Z,15.45
2019-03-31T22:25:06.742Z,20.35
2019-03-31T22:27:39.345Z,17.27
2019-03-31T22:30:12.226Z,18.77
2019-03-31T22:32:43.779Z,15.18
2019-03-31T22:35:15.461Z,16.82
2019-03-31T22:37:47.541Z,19.57
2019-03-31T22:40:19.209Z,16.85
2019-03-31T22:42:50.767Z,15.80
2019-03-31T22:45:22.418Z,18.87
2019-03-31T22:47:53.992Z,20.68
2019-03-31T22:50:25.731Z,23.38
2019-03-31T22:52:57.280Z,18.07
2019-03-31T22:55:28.866Z,15.80
2019-03-31T22:58:00.423Z,19.82
2019-03-31T23:00:32.466Z,21.17
2019-03-31T23:03:04.703Z,20.45
2019-03-31T23:05:36.276Z,18.92
2019-03-31T23:08:08.323Z,16.52
2019-03-31T23:10:39.965Z,18.40
2019-03-31T23:13:11.523Z,19.17
2019-03-31T23:15:43.107Z,18.98
2019-03-31T23:18:15.689Z,18.95
2019-03-31T23:20:47.382Z,17.17
2019-03-31T23:23:18.962Z,19.92
2019-03-31T23:25:50.931Z,16.70
2019-03-31T23:28:22.510Z,16.30
2019-03-31T23:30:54.054Z,16.17
2019-03-31T23:33:26.478Z,26.15
2019-03-31T23:35:58.018Z,16.62
2019-03-31T23:38:29.581Z,16.27
2019-03-31T23:41:03.287Z,18.00
2019-03-31T23:43:34.883Z,17.95
2019-03-31T23:46:06.433Z,19.87
2019-03-31T23:48:38.039Z,18.05
2019-03-31T23:51:09.587Z,17.50
2019-03-31T23:53:41.147Z,15.85
2019-03-31T23:56:12.698Z,13.68
2019-03-31T23:58:44.556Z,19.37
